Time;durP1;ratioP1;P1;durP2;ratioP2;P2;SDS_P1;SDS_P2;PMS_P1;PMS_P2;Temp;Humidity;BMP_temperature;BMP_pressure;BME280_temperature;BME280_humidity;BME280_pressure;Samples;Min_cycle;Max_cycle;Signal;HPM_P1;HPM_P2
2022/04/30 01:39:07;;;;;;;2.23;1.13;;;;;;;17.97;61.16;99396.22;6187421;23;20245;-90
2022/04/30 01:41:44;;;;;;;2.20;1.40;;;;;;;17.96;61.23;99396.31;6186660;23;20463;-90
2022/04/30 01:48:06;;;;;;;;;;;;;;;;;;;;;
2022/04/30 02:02:08;;;;;;;;;;;;;;;;;;;;;
2022/04/30 02:04:38;;;;;;;;;;;;;;;;;;;;;
2022/04/30 02:10:20;;;;;;;;;;;;;;;;;;;;;
2022/04/30 02:13:03;;;;;;;;;;;;;;;;;;;;;
2022/04/30 05:33:50;;;;;;;7.50;3.27;;;;;;;18.53;64.76;99455.41;6241346;22;20211;-92
2022/04/30 06:36:20;;;;;;;4.10;2.67;;;;;;;19.59;60.46;99482.06;5899280;24;20176;-92
2022/04/30 06:39:39;;;;;;;8.40;3.13;;;;;;;19.72;58.83;99479.19;5876512;24;20237;-92
2022/04/30 06:42:56;;;;;;;7.33;2.83;;;;;;;19.89;57.74;99475.94;5872078;24;20171;-91
2022/04/30 07:09:34;;;;;;;;;;;;;;;;;;;;;
2022/04/30 07:12:06;;;;;;;10.57;3.83;;;;;;;20.15;58.40;99479.84;5871073;24;20240;-91
2022/04/30 07:15:04;;;;;;;10.37;5.10;;;;;;;20.16;57.59;99475.38;5872259;24;20547;-91
2022/04/30 07:34:12;;;;;;;5.77;3.63;;;;;;;20.79;56.58;99475.09;5771469;24;20186;-88
2022/04/30 07:40:10;;;;;;;6.40;3.33;;;;;;;21.48;50.52;99469.72;5798749;24;20555;-94
2022/04/30 07:43:04;;;;;;;7.13;3.17;;;;;;;21.66;51.28;99465.34;5818332;24;20547;-91
2022/04/30 07:46:59;;;;;;;;;;;;;;;;;;;;;
2022/04/30 07:49:07;;;;;;;5.87;2.83;;;;;;;21.69;48.74;99462.41;5802741;24;20258;-88
2022/04/30 07:52:06;;;;;;;4.63;2.83;;;;;;;21.77;50.59;99459.00;6122134;22;20209;-88
2022/04/30 07:54:25;;;;;;;5.17;2.83;;;;;;;21.94;49.59;99464.47;6270898;22;20183;-88
2022/04/30 07:56:57;;;;;;;4.20;2.53;;;;;;;22.20;48.22;99464.69;6277338;22;20560;-89
2022/04/30 07:59:33;;;;;;;;;;;;;;;;;;;;;
2022/04/30 08:02:29;;;;;;;;;;;;;;;;;;;;;
2022/04/30 08:04:55;;;;;;;5.53;2.87;;;;;;;22.77;47.15;99450.25;6262291;22;20235;-87
2022/04/30 08:07:21;;;;;;;4.47;2.57;;;;;;;23.19;47.00;99450.53;6276517;22;20256;-87
2022/04/30 08:09:46;;;;;;;3.93;2.20;;;;;;;23.42;44.72;99445.56;6276623;22;20195;-86
2022/04/30 08:12:13;;;;;;;4.63;2.30;;;;;;;23.46;44.79;99444.25;6276976;22;20560;-86
2022/04/30 08:14:39;;;;;;;5.50;2.23;;;;;;;22.99;44.85;99451.63;6276575;22;20144;-89
2022/04/30 08:17:05;;;;;;;3.53;2.03;;;;;;;23.10;46.23;99446.91;6250173;22;20152;-89
2022/04/30 08:19:30;;;;;;;3.27;1.70;;;;;;;23.17;41.42;99453.34;6249864;22;20480;-89
2022/04/30 08:21:56;;;;;;;3.03;1.53;;;;;;;23.26;43.31;99448.91;6249838;22;20159;-88
2022/04/30 08:24:21;;;;;;;2.43;1.40;;;;;;;23.47;43.66;99436.09;6276480;22;20171;-88
2022/04/30 08:26:49;;;;;;;3.37;1.60;;;;;;;23.73;44.28;99438.78;6249677;22;20612;-89
2022/04/30 08:29:15;;;;;;;2.73;0.97;;;;;;;23.74;42.47;99425.22;6276425;22;20159;-87
2022/04/30 08:31:40;;;;;;;3.60;1.57;;;;;;;23.40;41.56;99436.88;6276446;22;20149;-88
2022/04/30 08:34:06;;;;;;;2.60;1.10;;;;;;;23.15;42.03;99443.78;6277212;22;20234;-86
2022/04/30 08:36:31;;;;;;;3.13;1.10;;;;;;;23.20;42.16;99434.31;6276846;22;20565;-87
2022/04/30 08:38:57;;;;;;;2.37;1.17;;;;;;;23.22;42.11;99440.34;6277672;22;20144;-89
2022/04/30 08:41:22;;;;;;;4.80;1.10;;;;;;;23.41;39.72;99439.38;6278493;22;20148;-88
2022/04/30 08:43:48;;;;;;;1.67;0.93;;;;;;;23.23;40.86;99436.69;6278427;22;20148;-88
2022/04/30 08:46:17;;;;;;;3.93;1.27;;;;;;;23.14;41.40;99437.59;6279038;22;20149;-88
2022/04/30 08:48:45;;;;;;;2.70;1.20;;;;;;;22.91;40.07;99443.53;6251713;22;20152;-87
2022/04/30 08:51:10;;;;;;;1.27;0.77;;;;;;;23.09;40.91;99439.03;6278364;22;20148;-87
2022/04/30 08:53:37;;;;;;;1.57;0.70;;;;;;;23.30;40.01;99431.53;6278387;22;20169;-88
2022/04/30 08:56:08;;;;;;;1.63;0.80;;;;;;;23.47;40.14;99443.28;6277183;22;20216;-89
2022/04/30 08:58:34;;;;;;;1.50;0.70;;;;;;;23.62;40.01;99436.34;6275866;22;20553;-89
2022/04/30 09:01:05;;;;;;;2.27;0.90;;;;;;;23.89;39.60;99430.88;6275806;22;20286;-88
2022/04/30 09:03:36;;;;;;;3.07;1.33;;;;;;;24.08;39.29;99432.50;6275736;22;20155;-89
2022/04/30 09:06:05;;;;;;;5.97;1.20;;;;;;;23.90;39.06;99423.69;6275650;22;20144;-89
2022/04/30 09:08:31;;;;;;;2.07;0.87;;;;;;;23.85;38.74;99427.66;6276945;22;20167;-87
2022/04/30 09:11:09;;;;;;;3.03;1.33;;;;;;;24.06;38.19;99415.72;6251385;22;20152;-87
2022/04/30 09:13:46;;;;;;;1.67;0.70;;;;;;;24.12;37.78;99413.28;6278251;22;20526;-89
2022/04/30 09:16:20;;;;;;;5.07;1.90;;;;;;;24.16;38.50;99416.50;6276599;22;20486;-87
2022/04/30 09:18:48;;;;;;;7.83;4.63;;;;;;;24.26;36.72;99410.03;6248142;22;20156;-87
2022/04/30 09:21:19;;;;;;;82.27;20.77;;;;;;;24.32;37.42;99408.50;6277240;22;20156;-88
2022/04/30 09:23:46;;;;;;;30.10;8.63;;;;;;;24.39;37.81;99404.22;6250283;22;20283;-88
2022/04/30 09:26:12;;;;;;;134.83;34.63;;;;;;;24.30;38.42;99406.00;6276830;22;20224;-88
2022/04/30 09:28:42;;;;;;;18.50;5.93;;;;;;;24.25;38.21;99405.66;6277261;22;20148;-87
2022/04/30 09:31:20;;;;;;;2.00;1.10;;;;;;;24.42;38.28;99406.56;6250604;22;20163;-92
2022/04/30 09:33:57;;;;;;;1.00;0.47;;;;;;;24.44;35.87;99400.06;6277389;22;20136;-89
2022/04/30 09:39:16;;;;;;;1.40;0.60;;;;;;;24.65;35.80;99388.88;6277025;22;20201;-88
2022/04/30 09:41:42;;;;;;;3.83;1.20;;;;;;;24.85;37.43;99378.72;6277295;22;20159;-86
2022/04/30 09:44:09;;;;;;;1.67;0.77;;;;;;;24.73;34.83;99391.59;6250498;22;20156;-89
2022/04/30 09:46:36;;;;;;;0.87;0.50;;;;;;;25.02;36.32;99380.44;6248315;22;20180;-88
2022/04/30 09:54:36;;;;;;;1.90;0.87;;;;;;;25.67;35.96;99381.28;6275046;22;20152;-87
2022/04/30 09:57:04;;;;;;;11.27;4.70;;;;;;;25.22;36.10;99375.56;6276827;22;20172;-86
2022/04/30 09:59:32;;;;;;;65.43;28.87;;;;;;;25.06;36.22;99376.41;6277051;22;20175;-88
2022/04/30 10:02:00;;;;;;;4.40;2.50;;;;;;;24.89;36.84;99380.09;6277268;22;20149;-86
2022/04/30 10:04:26;;;;;;;22.97;5.63;;;;;;;24.84;36.49;99369.84;6277188;22;20171;-86
2022/04/30 10:06:53;;;;;;;2.17;0.73;;;;;;;24.62;36.76;99375.81;6277015;22;20192;-86
2022/04/30 10:09:34;;;;;;;2.60;0.80;;;;;;;24.24;35.55;99379.84;6277293;22;20226;-86
2022/04/30 10:12:24;;;;;;;5.47;2.13;;;;;;;24.17;35.78;99375.31;6277318;22;20144;-86
2022/04/30 10:15:05;;;;;;;2.00;1.10;;;;;;;24.34;35.33;99366.34;6277131;22;20129;-86
2022/04/30 10:17:36;;;;;;;3.40;0.77;;;;;;;24.45;36.13;99360.66;6277330;22;20141;-89
2022/04/30 10:20:14;;;;;;;3.37;1.13;;;;;;;24.58;36.84;99350.31;6250118;22;20157;-87
2022/04/30 10:22:53;;;;;;;2.27;0.70;;;;;;;24.71;35.40;99358.72;6277522;22;20128;-87
2022/04/30 10:25:48;;;;;;;2.50;0.60;;;;;;;24.85;36.58;99358.13;6274893;22;20214;-87
2022/04/30 10:28:22;;;;;;;6.67;2.27;;;;;;;24.90;35.55;99357.59;6259600;22;20220;-88
2022/04/30 10:31:06;;;;;;;4.23;1.77;;;;;;;25.00;36.29;99352.91;6276608;22;20140;-86
2022/04/30 10:33:33;;;;;;;1.07;0.50;;;;;;;24.99;35.12;99352.09;6249570;22;20173;-87
2022/04/30 10:36:10;;;;;;;2.13;1.20;;;;;;;25.13;35.07;99357.81;6276616;22;20158;-86
2022/04/30 10:38:36;;;;;;;1.20;0.83;;;;;;;25.09;35.54;99353.78;6249906;22;20148;-87
2022/04/30 10:41:04;;;;;;;2.37;0.73;;;;;;;25.20;35.16;99345.41;6276703;22;20149;-87
2022/04/30 10:43:36;;;;;;;1.67;1.00;;;;;;;25.17;35.09;99351.94;6249731;22;20164;-86
2022/04/30 10:46:03;;;;;;;4.10;1.40;;;;;;;25.45;34.48;99347.88;6274678;22;20157;-86
2022/04/30 10:48:29;;;;;;;2.77;1.37;;;;;;;25.67;34.89;99341.00;6275694;22;20602;-88
2022/04/30 10:51:11;;;;;;;2.17;0.90;;;;;;;25.56;35.18;99344.03;6277170;22;20237;-88
2022/04/30 10:53:43;;;;;;;1.70;0.87;;;;;;;25.67;35.14;99343.69;6277541;22;20533;-89
2022/04/30 10:56:09;;;;;;;1.80;0.80;;;;;;;25.58;34.52;99342.03;6277547;22;20149;-89
2022/04/30 10:58:38;;;;;;;5.07;1.90;;;;;;;25.86;33.83;99335.25;6277501;22;20561;-87
2022/04/30 11:01:30;;;;;;;6.37;1.80;;;;;;;25.83;33.54;99348.19;6276747;22;20149;-86
2022/04/30 11:03:55;;;;;;;11.50;1.97;;;;;;;26.11;33.68;99338.66;6269985;22;20175;-87
2022/04/30 11:06:26;;;;;;;0.97;0.50;;;;;;;26.22;33.31;99338.31;6277053;22;20176;-87
2022/04/30 11:09:06;;;;;;;1.13;0.63;;;;;;;26.52;33.52;99333.97;6277055;22;20479;-88
2022/04/30 11:11:32;;;;;;;1.40;0.60;;;;;;;26.26;32.08;99328.88;6277065;22;20527;-88
2022/04/30 11:14:02;;;;;;;2.10;0.60;;;;;;;26.26;32.41;99331.56;6248436;22;20161;-87
2022/04/30 11:16:35;;;;;;;1.67;0.80;;;;;;;26.13;32.68;99334.00;6276187;22;20520;-87
2022/04/30 11:19:05;;;;;;;3.20;0.70;;;;;;;26.02;34.60;99327.09;6275264;22;20133;-88
2022/04/30 11:21:36;;;;;;;1.17;0.60;;;;;;;26.04;32.68;99333.16;6276861;22;20557;-87
2022/04/30 11:24:02;;;;;;;1.33;0.60;;;;;;;26.09;31.77;99322.75;6277013;22;20219;-86
2022/04/30 11:26:30;;;;;;;1.73;0.90;;;;;;;26.15;31.74;99311.31;6276797;22;20172;-86
2022/04/30 11:28:56;;;;;;;0.53;0.40;;;;;;;25.85;32.82;99314.75;6275205;22;20144;-87
2022/04/30 11:31:22;;;;;;;4.63;1.23;;;;;;;26.28;33.43;99309.91;6276643;22;20238;-88
2022/04/30 11:33:48;;;;;;;1.83;0.90;;;;;;;26.66;32.84;99303.63;6277307;22;20144;-87
2022/04/30 11:36:13;;;;;;;3.00;0.87;;;;;;;26.48;32.34;99311.97;6249971;22;20152;-88
2022/04/30 11:38:39;;;;;;;2.37;0.80;;;;;;;26.32;32.75;99316.59;6276701;22;20144;-89
2022/04/30 11:41:06;;;;;;;2.60;0.80;;;;;;;26.33;32.38;99311.06;6276781;22;20148;-89
2022/04/30 11:43:31;;;;;;;3.40;1.33;;;;;;;26.34;32.34;99306.50;6276409;22;20152;-88
2022/04/30 11:46:01;;;;;;;3.00;1.10;;;;;;;26.26;32.03;99298.50;6249898;22;20241;-88
2022/04/30 11:48:36;;;;;;;2.27;0.80;;;;;;;26.51;32.72;99292.81;6249763;22;20196;-88
2022/04/30 11:51:02;;;;;;;1.23;0.60;;;;;;;26.54;33.46;99289.78;6249856;22;20578;-87
2022/04/30 11:53:27;;;;;;;6.37;1.17;;;;;;;26.58;32.34;99295.59;6276501;22;20176;-88
2022/04/30 11:55:53;;;;;;;1.20;0.77;;;;;;;26.71;32.28;99295.84;6276573;22;20156;-91
2022/04/30 11:58:18;;;;;;;1.70;0.77;;;;;;;26.54;31.47;99289.78;6276583;22;20175;-88
2022/04/30 12:00:44;;;;;;;1.50;0.75;;;;;;;26.51;31.98;99294.66;6276533;22;20144;-88
2022/04/30 12:03:09;;;;;;;1.40;0.70;;;;;;;26.61;31.27;99288.03;6249720;22;20152;-87
2022/04/30 12:05:35;;;;;;;2.70;0.68;;;;;;;26.63;31.41;99283.31;6276355;22;20175;-88
2022/04/30 12:08:01;;;;;;;1.50;0.80;;;;;;;26.17;32.38;99287.81;6276541;22;20183;-90
2022/04/30 12:10:28;;;;;;;0.88;0.50;;;;;;;26.46;32.28;99281.75;6275565;22;20145;-91
2022/04/30 12:12:54;;;;;;;1.17;0.63;;;;;;;26.76;31.83;99285.38;6276825;22;20148;-88
2022/04/30 12:15:24;;;;;;;5.60;1.73;;;;;;;26.81;31.72;99280.34;6276885;22;20210;-89
2022/04/30 12:26:51;;;;;;;2.53;0.80;;;;;;;27.42;30.37;99252.38;6276880;22;20602;-88
2022/04/30 12:29:24;;;;;;;2.85;0.98;;;;;;;27.38;31.39;99262.63;6249771;22;20148;-89
2022/04/30 12:31:53;;;;;;;1.88;1.17;;;;;;;26.99;30.72;99256.63;6277114;22;20148;-89
2022/04/30 12:34:20;;;;;;;1.98;1.05;;;;;;;26.99;31.00;99258.53;6249711;22;20171;-89
2022/04/30 12:36:57;;;;;;;2.08;1.10;;;;;;;26.71;31.16;99255.50;6276512;22;20291;-89
2022/04/30 12:39:23;;;;;;;3.08;0.95;;;;;;;26.49;32.17;99259.06;6276802;22;20144;-89
2022/04/30 12:41:52;;;;;;;1.35;0.68;;;;;;;25.99;32.41;99267.53;6276403;22;20228;-88
2022/04/30 12:44:17;;;;;;;3.60;1.65;;;;;;;26.34;33.34;99263.50;6276773;22;20210;-89
2022/04/30 12:46:44;;;;;;;1.85;1.33;;;;;;;26.69;33.14;99260.25;6249564;22;20180;-89
2022/04/30 12:49:12;;;;;;;1.83;1.08;;;;;;;26.45;30.87;99249.66;6249679;22;20171;-88
2022/04/30 12:51:38;;;;;;;2.17;1.08;;;;;;;26.45;31.77;99247.81;6276395;22;20156;-88
2022/04/30 12:54:05;;;;;;;1.73;1.00;;;;;;;26.55;32.27;99252.94;6249649;22;20153;-86
2022/04/30 12:56:31;;;;;;;2.97;1.02;;;;;;;26.44;32.72;99253.38;6276358;22;20214;-86
2022/04/30 12:58:57;;;;;;;2.03;1.02;;;;;;;26.14;31.14;99261.28;6276776;22;20144;-89
2022/04/30 13:01:22;;;;;;;1.65;0.85;;;;;;;26.11;32.67;99258.91;6276349;22;20235;-90
2022/04/30 13:03:48;;;;;;;1.33;0.70;;;;;;;26.24;33.18;99247.59;6249679;22;20160;-89
2022/04/30 13:06:14;;;;;;;3.58;1.20;;;;;;;26.79;32.17;99239.34;6276284;22;20217;-89
2022/04/30 13:14:08;;;;;;;1.58;0.88;;;;;;;25.75;32.93;99244.31;6276764;22;20205;-88
2022/04/30 13:16:33;;;;;;;4.05;0.80;;;;;;;26.02;33.15;99246.50;6276247;22;20153;-89
2022/04/30 13:18:59;;;;;;;1.90;0.80;;;;;;;25.97;33.16;99235.47;6275850;22;20148;-88
2022/04/30 13:21:25;;;;;;;1.38;0.95;;;;;;;26.01;33.28;99239.50;6249564;22;20155;-88
2022/04/30 13:23:50;;;;;;;1.65;0.77;;;;;;;25.54;34.77;99236.84;6250054;22;20194;-89
2022/04/30 13:26:16;;;;;;;0.90;0.57;;;;;;;24.86;34.33;99243.66;6278036;22;20155;-90
2022/04/30 13:28:42;;;;;;;3.90;0.80;;;;;;;24.92;34.87;99245.66;6278049;22;20148;-89
2022/04/30 13:31:08;;;;;;;1.47;0.70;;;;;;;25.14;34.87;99244.97;6278044;22;20223;-89
2022/04/30 13:33:34;;;;;;;1.37;0.70;;;;;;;25.29;35.10;99237.06;6251322;22;20514;-87
2022/04/30 13:36:01;;;;;;;3.87;1.00;;;;;;;25.29;34.40;99231.69;6278040;22;20569;-88
2022/04/30 13:38:27;;;;;;;1.40;0.70;;;;;;;25.65;34.36;99236.44;6277990;22;20145;-87
2022/04/30 13:40:53;;;;;;;1.27;0.70;;;;;;;25.64;33.69;99232.09;6278340;22;20213;-88
2022/04/30 13:43:19;;;;;;;2.13;0.80;;;;;;;25.43;34.49;99237.19;6277934;22;20145;-88
2022/04/30 13:45:45;;;;;;;1.57;0.83;;;;;;;25.33;35.13;99238.38;6277906;22;20144;-89
2022/04/30 13:48:10;;;;;;;2.58;0.73;;;;;;;25.53;34.23;99232.47;6278149;22;20183;-89
2022/04/30 13:50:36;;;;;;;2.60;0.70;;;;;;;25.67;34.25;99244.34;6277913;22;20219;-87
2022/04/30 13:53:01;;;;;;;2.70;0.80;;;;;;;25.42;32.40;99240.84;6277887;22;20650;-88
2022/04/30 13:55:27;;;;;;;1.83;0.80;;;;;;;24.87;34.00;99235.44;6277838;22;20630;-88
2022/04/30 13:57:53;;;;;;;1.37;0.50;;;;;;;24.80;34.16;99236.28;6278459;22;20144;-88
2022/04/30 14:00:21;;;;;;;1.17;0.67;;;;;;;24.74;34.54;99232.38;6277321;22;20285;-88
2022/04/30 14:02:47;;;;;;;1.43;0.70;;;;;;;24.48;34.99;99247.78;6277248;22;20161;-91
2022/04/30 14:05:14;;;;;;;1.73;0.80;;;;;;;24.58;34.88;99234.25;6250859;22;20152;-89
2022/04/30 14:07:39;;;;;;;0.70;0.50;;;;;;;24.00;36.17;99242.31;6277608;22;20184;-88
2022/04/30 14:10:06;;;;;;;4.57;0.60;;;;;;;23.82;36.64;99245.91;6278377;22;20164;-88
2022/04/30 14:12:31;;;;;;;3.10;0.87;;;;;;;23.73;36.48;99246.91;6250548;22;20165;-89
2022/04/30 14:14:57;;;;;;;1.67;0.80;;;;;;;23.72;36.09;99239.84;6277639;22;20633;-88
2022/04/30 14:20:13;;;;;;;3.50;0.97;;;;;;;23.43;36.34;99250.09;6277730;22;20140;-88
2022/04/30 15:03:34;;;;;;;1.43;0.60;;;;;;;24.27;34.81;99217.94;5067445;28;20555;-83
2022/04/30 15:05:59;;;;;;;1.93;0.83;;;;;;;24.57;34.36;99219.16;5066869;28;20569;-85
2022/04/30 15:08:25;;;;;;;1.50;0.60;;;;;;;24.54;34.30;99223.00;5065990;28;20185;-84
2022/04/30 15:10:50;;;;;;;2.17;0.77;;;;;;;24.49;33.19;99228.03;5066759;28;20541;-85
2022/04/30 15:13:15;;;;;;;3.67;0.70;;;;;;;24.44;32.97;99230.38;5066757;28;20189;-84
2022/04/30 15:15:42;;;;;;;1.70;0.70;;;;;;;24.29;33.47;99230.16;5067290;28;20249;-85
2022/04/30 15:18:07;;;;;;;1.67;0.67;;;;;;;24.26;32.90;99225.16;5066731;28;20225;-84
2022/04/30 15:20:33;;;;;;;1.80;0.60;;;;;;;24.21;33.46;99230.16;5063943;28;20196;-84
2022/04/30 15:22:58;;;;;;;2.10;1.00;;;;;;;24.21;33.52;99224.78;5063994;28;20208;-84
2022/04/30 15:25:24;;;;;;;1.73;0.80;;;;;;;24.11;34.02;99223.31;5064892;28;20188;-84
2022/04/30 15:27:49;;;;;;;1.80;0.70;;;;;;;24.26;33.85;99222.50;5065729;28;20259;-84
2022/04/30 15:30:15;;;;;;;2.90;0.80;;;;;;;24.27;32.95;99228.66;5067416;28;20184;-85
2022/04/30 15:32:40;;;;;;;1.77;0.70;;;;;;;24.15;33.87;99224.63;5067014;28;20185;-84
2022/04/30 15:35:06;;;;;;;1.10;0.60;;;;;;;24.12;32.62;99224.97;5065564;28;20522;-84
2022/04/30 15:37:32;;;;;;;1.07;0.50;;;;;;;24.12;32.52;99224.97;5066018;27;20177;-84
2022/04/30 15:39:57;;;;;;;2.80;1.30;;;;;;;24.18;32.25;99227.00;5063718;28;20650;-84
2022/04/30 15:42:25;;;;;;;2.00;1.07;;;;;;;24.23;32.65;99230.00;5064322;28;20233;-84
2022/04/30 15:44:52;;;;;;;1.53;0.83;;;;;;;24.23;32.83;99224.66;5064290;28;20631;-84
2022/04/30 15:52:46;;;;;;;1.93;0.83;;;;;;;24.17;33.11;99227.97;5064147;28;20200;-85
2022/04/30 15:55:12;;;;;;;2.03;1.10;;;;;;;24.20;33.21;99223.13;5065551;28;20567;-84
2022/04/30 15:57:38;;;;;;;1.27;0.80;;;;;;;24.20;32.86;99228.50;5066139;28;20188;-85
2022/04/30 16:00:04;;;;;;;1.07;0.60;;;;;;;24.16;32.64;99231.69;5066379;28;20177;-84
2022/04/30 16:02:30;;;;;;;2.80;1.57;;;;;;;24.22;32.71;99225.63;5063677;28;20217;-85
2022/04/30 16:04:55;;;;;;;2.53;1.40;;;;;;;24.19;32.79;99232.16;5051848;28;20196;-85
2022/04/30 16:07:21;;;;;;;4.07;1.37;;;;;;;24.03;33.86;99237.44;5052633;28;20300;-84
2022/04/30 16:09:46;;;;;;;1.90;1.10;;;;;;;23.88;34.19;99233.72;5051599;28;20183;-84
2022/04/30 16:12:12;;;;;;;1.17;0.60;;;;;;;23.89;32.87;99246.13;5051452;28;20685;-83
2022/04/30 16:14:37;;;;;;;2.77;0.73;;;;;;;23.85;32.70;99242.06;5052469;28;20188;-85
2022/04/30 16:17:05;;;;;;;1.37;0.77;;;;;;;23.81;32.86;99240.75;5052742;28;20174;-84
2022/04/30 16:19:30;;;;;;;0.73;0.40;;;;;;;23.63;33.32;99245.34;5051478;28;20269;-84
2022/04/30 16:21:56;;;;;;;0.97;0.57;;;;;;;23.42;33.44;99237.72;5052364;28;20197;-84
2022/04/30 16:24:22;;;;;;;0.90;0.53;;;;;;;23.42;33.47;99239.56;5052325;28;20632;-84
2022/04/30 16:26:48;;;;;;;2.43;0.53;;;;;;;23.36;33.39;99246.34;5051386;28;20224;-84
2022/04/30 16:29:14;;;;;;;1.67;0.60;;;;;;;23.38;33.99;99240.84;5051308;28;20209;-84
2022/04/30 16:31:42;;;;;;;3.77;0.97;;;;;;;23.45;33.90;99252.63;5052417;28;20197;-84
2022/04/30 16:34:08;;;;;;;1.43;0.60;;;;;;;23.45;33.88;99241.91;5052194;28;20534;-84
2022/04/30 16:36:34;;;;;;;2.30;0.80;;;;;;;23.54;34.08;99244.47;5051249;28;20224;-87
2022/04/30 16:39:04;;;;;;;1.67;0.63;;;;;;;23.54;33.83;99241.78;5051191;28;20206;-87
2022/04/30 16:41:31;;;;;;;0.97;0.50;;;;;;;23.49;34.59;99244.09;5052108;28;20695;-87
2022/04/30 16:43:57;;;;;;;2.43;0.73;;;;;;;23.27;35.01;99243.78;5052072;28;20260;-87
2022/04/30 16:46:22;;;;;;;2.67;0.40;;;;;;;23.20;34.17;99254.28;5052338;28;20301;-87
2022/04/30 16:48:49;;;;;;;1.77;0.70;;;;;;;23.19;34.96;99247.25;5052037;28;20609;-87
2022/04/30 16:53:58;;;;;;;1.67;0.57;;;;;;;23.13;35.05;99251.41;5050173;28;20177;-87
2022/04/30 16:59:09;;;;;;;1.07;0.50;;;;;;;22.74;35.25;99251.94;5052399;28;20226;-86
2022/04/30 17:01:35;;;;;;;0.90;0.40;;;;;;;22.71;35.63;99254.91;5049974;28;20190;-86
2022/04/30 17:04:00;;;;;;;1.47;0.40;;;;;;;22.68;35.69;99253.38;5050766;28;20178;-86
2022/04/30 17:06:29;;;;;;;1.87;0.60;;;;;;;22.55;36.02;99259.09;5050773;28;20189;-86
2022/04/30 17:08:59;;;;;;;1.47;0.70;;;;;;;22.42;36.52;99263.97;5051198;28;20170;-86
2022/04/30 17:11:25;;;;;;;1.13;0.60;;;;;;;22.45;36.29;99269.03;5051891;28;20223;-86
2022/04/30 17:13:51;;;;;;;1.23;0.60;;;;;;;22.47;36.40;99275.03;5051532;28;20192;-86
2022/04/30 17:16:16;;;;;;;1.70;0.80;;;;;;;22.38;37.26;99275.94;5050122;28;20173;-86
2022/04/30 17:18:42;;;;;;;1.70;0.70;;;;;;;22.11;37.22;99278.66;5050864;28;20186;-86
2022/04/30 17:21:07;;;;;;;2.10;0.70;;;;;;;21.95;37.60;99287.34;5050472;28;20178;-85
2022/04/30 17:23:33;;;;;;;0.93;0.40;;;;;;;21.89;38.51;99287.06;5050527;28;20739;-86
2022/04/30 17:26:01;;;;;;;0.67;0.33;;;;;;;21.85;38.74;99296.34;5051418;28;20189;-86
2022/04/30 17:28:27;;;;;;;10.47;0.80;;;;;;;21.82;38.77;99292.16;5051394;28;20184;-86
2022/04/30 17:39:05;;;;;;;2.20;0.80;;;;;;;21.27;40.44;99306.38;5051533;28;20181;-86
2022/04/30 17:41:31;;;;;;;0.93;0.53;;;;;;;20.98;40.99;99308.22;5051178;28;20178;-86
2022/04/30 17:43:57;;;;;;;1.17;0.67;;;;;;;20.86;41.83;99312.84;5051111;28;20608;-85
2022/04/30 17:46:22;;;;;;;2.23;0.80;;;;;;;20.89;41.54;99307.22;5051096;28;20307;-86
2022/04/30 17:48:48;;;;;;;2.20;0.83;;;;;;;20.69;41.88;99321.53;5050122;28;20535;-85
2022/04/30 17:51:14;;;;;;;0.80;0.60;;;;;;;20.69;42.09;99326.88;5050034;28;20694;-86
2022/04/30 17:53:40;;;;;;;2.37;0.90;;;;;;;20.74;42.32;99325.47;5051278;28;20261;-86
2022/04/30 17:56:06;;;;;;;1.57;0.70;;;;;;;20.83;42.28;99329.13;5049993;28;20204;-85
2022/04/30 17:58:31;;;;;;;2.87;1.07;;;;;;;20.87;42.49;99330.50;5051172;28;20587;-86
2022/04/30 18:00:56;;;;;;;0.47;0.40;;;;;;;20.92;42.51;99340.75;5050833;28;20186;-85
2022/04/30 18:03:23;;;;;;;1.43;0.70;;;;;;;20.81;43.09;99344.38;5049825;28;20216;-85
2022/04/30 18:05:52;;;;;;;1.60;0.70;;;;;;;20.70;43.31;99352.53;5051354;28;20648;-86
2022/04/30 18:08:18;;;;;;;2.87;1.20;;;;;;;20.57;43.85;99355.44;5050785;28;20174;-86
2022/04/30 18:10:43;;;;;;;1.47;0.73;;;;;;;20.40;44.79;99355.28;5049793;28;20221;-85
2022/04/30 18:13:09;;;;;;;3.83;1.03;;;;;;;20.33;44.79;99359.47;5050614;28;20212;-85
2022/04/30 18:15:36;;;;;;;3.63;1.70;;;;;;;20.35;44.88;99365.50;5049748;28;20206;-85
2022/04/30 18:18:02;;;;;;;4.73;1.20;;;;;;;20.38;44.98;99359.91;5050596;28;20668;-85
2022/04/30 18:20:28;;;;;;;2.27;0.90;;;;;;;20.46;45.23;99363.56;5050586;28;20269;-86
2022/04/30 18:22:53;;;;;;;3.13;0.80;;;;;;;20.42;45.24;99359.50;5050491;28;20257;-87
2022/04/30 18:25:18;;;;;;;1.20;0.57;;;;;;;20.39;45.70;99366.94;5050509;28;20612;-86
2022/04/30 18:27:44;;;;;;;2.60;1.20;;;;;;;20.36;45.54;99362.69;5049219;28;20189;-86
2022/04/30 18:30:11;;;;;;;2.90;1.00;;;;;;;20.36;45.84;99372.53;5049775;28;20182;-86
2022/04/30 18:32:36;;;;;;;1.60;0.73;;;;;;;20.20;46.37;99381.00;5050295;28;20189;-86
2022/04/30 18:35:03;;;;;;;2.30;0.90;;;;;;;20.13;46.92;99377.16;5050699;28;20180;-86
2022/04/30 18:37:29;;;;;;;2.60;1.00;;;;;;;20.24;46.49;99387.75;5050396;28;20175;-86
2022/04/30 18:39:57;;;;;;;2.67;1.57;;;;;;;20.23;46.30;99394.88;5050625;28;20601;-86
2022/04/30 18:42:22;;;;;;;2.03;0.97;;;;;;;20.23;46.55;99388.69;5050868;28;20216;-86
2022/04/30 18:44:48;;;;;;;4.03;1.00;;;;;;;20.25;46.79;99396.59;5050276;28;20257;-86
2022/04/30 18:47:14;;;;;;;4.20;1.07;;;;;;;20.06;47.67;99398.16;5050238;28;20523;-85
2022/04/30 18:49:40;;;;;;;1.73;0.80;;;;;;;19.96;47.99;99401.75;5049238;28;20530;-86
2022/04/30 18:52:06;;;;;;;2.50;0.90;;;;;;;19.83;48.33;99401.13;5049137;28;20288;-86
2022/04/30 19:02:44;;;;;;;2.30;1.30;;;;;;;19.74;48.96;99409.88;5050396;28;20749;-86
2022/04/30 19:05:11;;;;;;;1.97;0.90;;;;;;;19.58;49.64;99415.69;5050300;28;20170;-86
2022/04/30 19:07:37;;;;;;;4.73;1.53;;;;;;;19.55;49.63;99416.78;5049988;28;20314;-86
2022/04/30 19:10:06;;;;;;;1.60;0.87;;;;;;;19.51;49.64;99417.19;5049014;28;20275;-86
2022/04/30 19:12:32;;;;;;;2.70;1.03;;;;;;;19.48;50.09;99412.13;5050128;28;20204;-86
2022/04/30 19:14:57;;;;;;;1.63;0.97;;;;;;;19.43;50.41;99415.16;5050434;28;20178;-85
2022/04/30 19:17:23;;;;;;;1.90;0.90;;;;;;;19.50;50.47;99412.81;5049877;28;20189;-86
2022/04/30 19:19:49;;;;;;;3.07;1.13;;;;;;;19.46;50.35;99420.25;5048928;28;20174;-86
2022/04/30 19:22:15;;;;;;;5.27;1.20;;;;;;;19.37;50.35;99417.47;5049816;28;20202;-86
2022/04/30 19:24:42;;;;;;;1.77;1.03;;;;;;;19.35;50.78;99425.56;5049786;28;20185;-86
2022/04/30 19:27:08;;;;;;;1.30;0.90;;;;;;;19.15;51.28;99428.22;5049745;28;20188;-85
2022/04/30 19:29:36;;;;;;;3.57;1.47;;;;;;;19.17;51.22;99424.47;5050269;28;20227;-86
2022/04/30 19:32:02;;;;;;;2.70;1.00;;;;;;;19.24;51.02;99422.13;5047034;28;20285;-85
2022/04/30 19:34:28;;;;;;;3.70;1.33;;;;;;;19.21;50.93;99422.41;5044052;28;20193;-85
2022/04/30 19:36:54;;;;;;;2.17;0.90;;;;;;;19.22;50.93;99426.72;5049113;28;20174;-85
2022/04/30 19:39:22;;;;;;;4.33;1.30;;;;;;;19.19;51.14;99425.16;5051718;28;20638;-85
2022/04/30 19:41:49;;;;;;;2.33;1.10;;;;;;;19.02;51.77;99429.22;5052098;28;20185;-85
2022/04/30 19:44:14;;;;;;;2.00;1.30;;;;;;;19.01;51.80;99422.22;5053022;28;20174;-86
2022/04/30 19:46:40;;;;;;;4.47;1.07;;;;;;;19.08;51.45;99427.03;5052571;28;20541;-85
2022/04/30 19:49:05;;;;;;;6.07;1.63;;;;;;;19.10;51.53;99439.22;5053176;28;20184;-85
2022/04/30 19:51:31;;;;;;;3.63;1.00;;;;;;;18.91;52.02;99426.63;5046184;28;20358;-85
2022/04/30 19:53:57;;;;;;;3.47;1.40;;;;;;;18.93;52.22;99440.59;5038489;28;20190;-85
2022/04/30 19:56:23;;;;;;;1.57;0.80;;;;;;;19.00;51.78;99438.28;5032834;28;20235;-85
2022/04/30 19:58:49;;;;;;;1.97;1.13;;;;;;;18.95;51.91;99436.00;5032879;28;20174;-85
2022/04/30 20:01:16;;;;;;;2.93;1.10;;;;;;;18.95;52.26;99436.00;5032697;28;20235;-85
2022/04/30 20:03:42;;;;;;;3.27;1.20;;;;;;;18.95;51.82;99436.00;5032826;28;20235;-85
2022/04/30 20:06:12;;;;;;;2.53;1.20;;;;;;;18.88;52.21;99440.16;5032770;28;20188;-84
2022/04/30 20:08:40;;;;;;;2.63;1.10;;;;;;;18.89;52.00;99444.47;5031862;28;20232;-85
2022/04/30 20:19:21;;;;;;;1.70;1.00;;;;;;;18.60;53.12;99445.16;5052740;28;20644;-86
2022/04/30 20:21:52;;;;;;;1.77;1.00;;;;;;;18.65;53.02;99450.94;5052438;28;20204;-85
2022/04/30 20:24:17;;;;;;;2.47;1.30;;;;;;;18.59;53.03;99444.31;5052612;28;20178;-86
2022/04/30 20:26:44;;;;;;;2.10;1.17;;;;;;;18.60;52.84;99451.31;5045988;28;20185;-85
2022/04/30 20:29:11;;;;;;;2.70;1.30;;;;;;;18.54;53.37;99451.81;5032997;28;20179;-86
2022/04/30 20:37:05;;;;;;;2.97;1.20;;;;;;;18.34;53.68;99449.88;5050455;28;20246;-85